Time;durP1;ratioP1;P1;durP2;ratioP2;P2;SDS_P1;SDS_P2;PMS_P1;PMS_P2;Temp;Humidity;BMP_temperature;BMP_pressure;BME280_temperature;BME280_humidity;BME280_pressure;Samples;Min_cycle;Max_cycle;Signal;HPM_P1;HPM_P2
2020/12/31 00:01:17;;;;;;;9.23;6.93;;;3.60;99.90;;;;;;4994288;28;20640;-78
2020/12/31 00:03:43;;;;;;;8.90;6.60;;;3.60;99.90;;;;;;4993828;28;20193;-78
2020/12/31 00:06:08;;;;;;;8.87;6.83;;;3.60;99.90;;;;;;4993934;28;20218;-78
2020/12/31 00:08:34;;;;;;;11.77;7.37;;;3.60;99.90;;;;;;4993914;28;20560;-78
2020/12/31 00:11:00;;;;;;;7.47;6.30;;;3.60;99.90;;;;;;4994734;28;20277;-77
2020/12/31 00:13:25;;;;;;;12.27;7.17;;;3.60;99.90;;;;;;4994832;28;20171;-79
2020/12/31 00:15:51;;;;;;;9.00;7.07;;;3.60;99.90;;;;;;4995112;28;20174;-77
2020/12/31 00:18:16;;;;;;;7.90;6.83;;;3.50;99.90;;;;;;4993700;28;20199;-75
2020/12/31 00:20:42;;;;;;;9.70;7.40;;;3.50;99.90;;;;;;4993861;28;20613;-79
2020/12/31 00:23:07;;;;;;;8.37;7.20;;;3.50;99.90;;;;;;4994739;28;20252;-77
2020/12/31 00:25:45;;;;;;;12.10;7.80;;;3.50;99.90;;;;;;4994977;28;20206;-76
2020/12/31 00:28:11;;;;;;;9.23;7.05;;;3.60;99.90;;;;;;4994816;28;20293;-77
2020/12/31 00:30:36;;;;;;;8.90;7.50;;;3.60;99.90;;;;;;4993675;28;20215;-79
2020/12/31 00:33:02;;;;;;;9.60;6.83;;;3.60;99.90;;;;;;4994607;28;20231;-80
2020/12/31 00:35:29;;;;;;;9.97;6.67;;;3.60;99.90;;;;;;4994749;28;20188;-77
2020/12/31 00:37:54;;;;;;;9.40;7.03;;;3.60;99.90;;;;;;4993407;28;20203;-78
2020/12/31 00:40:20;;;;;;;8.93;6.20;;;3.50;99.90;;;;;;4994727;28;20541;-76
2020/12/31 00:42:46;;;;;;;9.77;6.27;;;3.60;99.90;;;;;;4994276;28;20538;-79
2020/12/31 00:45:11;;;;;;;9.73;6.60;;;3.50;99.90;;;;;;4994367;28;20190;-77
2020/12/31 00:47:37;;;;;;;8.50;6.17;;;3.50;99.90;;;;;;4994334;28;20198;-76
2020/12/31 00:50:04;;;;;;;8.50;6.03;;;3.50;99.90;;;;;;4994471;28;20177;-76
2020/12/31 00:52:29;;;;;;;9.07;6.78;;;3.40;99.90;;;;;;4994318;28;20232;-77
2020/12/31 00:54:55;;;;;;;9.77;6.47;;;3.50;99.90;;;;;;4993193;28;20179;-79
2020/12/31 00:57:20;;;;;;;8.57;6.53;;;3.50;99.90;;;;;;4994188;28;20237;-79
2020/12/31 00:59:46;;;;;;;8.77;6.27;;;3.40;99.90;;;;;;4994350;28;20182;-78
2020/12/31 01:02:12;;;;;;;10.00;7.10;;;3.40;99.90;;;;;;4994142;28;20182;-80
2020/12/31 01:04:37;;;;;;;10.63;7.43;;;3.40;99.90;;;;;;4993054;28;20561;-80
2020/12/31 01:07:03;;;;;;;9.67;6.70;;;3.40;99.90;;;;;;4994043;28;20214;-76
2020/12/31 01:09:28;;;;;;;10.97;6.47;;;3.40;99.90;;;;;;4994307;28;20189;-77
2020/12/31 01:11:55;;;;;;;8.50;6.93;;;3.40;99.90;;;;;;4992638;28;20628;-77
2020/12/31 01:14:21;;;;;;;7.65;6.20;;;3.40;99.90;;;;;;4994136;28;20170;-75
2020/12/31 01:16:50;;;;;;;10.35;6.90;;;3.40;99.90;;;;;;4993991;28;20206;-76
2020/12/31 01:19:16;;;;;;;10.77;6.65;;;3.40;99.90;;;;;;4994120;28;20548;-74
2020/12/31 01:21:45;;;;;;;7.60;6.38;;;3.50;99.90;;;;;;4993914;28;20650;-78
2020/12/31 01:24:13;;;;;;;9.65;6.93;;;3.40;99.90;;;;;;4993294;28;20187;-74
2020/12/31 01:26:39;;;;;;;9.40;7.30;;;3.40;99.90;;;;;;4993826;28;20204;-74
2020/12/31 01:29:05;;;;;;;9.95;7.10;;;3.40;99.90;;;;;;4993833;28;20222;-79
2020/12/31 01:31:31;;;;;;;9.82;6.85;;;3.40;99.90;;;;;;4992780;28;20624;-78
2020/12/31 01:33:57;;;;;;;7.85;5.80;;;3.40;99.90;;;;;;4993750;28;20179;-78
2020/12/31 01:36:23;;;;;;;8.88;6.22;;;3.50;99.90;;;;;;4992904;28;20659;-77
2020/12/31 01:38:49;;;;;;;9.50;6.60;;;3.50;99.90;;;;;;4993836;28;20210;-78
2020/12/31 01:41:21;;;;;;;7.47;6.63;;;3.60;99.90;;;;;;4993889;28;20908;-78
2020/12/31 01:44:01;;;;;;;7.80;6.65;;;3.60;99.90;;;;;;4993527;28;20448;-75
2020/12/31 01:46:27;;;;;;;7.80;6.90;;;3.70;99.90;;;;;;4992455;28;20213;-80
2020/12/31 01:48:53;;;;;;;8.40;6.85;;;3.70;99.90;;;;;;4993716;28;20767;-79
2020/12/31 01:51:18;;;;;;;10.03;6.80;;;3.70;99.90;;;;;;4993772;28;20280;-77
2020/12/31 01:53:44;;;;;;;7.57;6.20;;;3.80;99.90;;;;;;4993294;28;20189;-77
2020/12/31 01:56:12;;;;;;;8.50;7.63;;;3.80;99.90;;;;;;4993714;28;20175;-75
2020/12/31 01:58:38;;;;;;;11.73;6.00;;;3.80;99.90;;;;;;4993525;28;20199;-78
2020/12/31 02:01:03;;;;;;;7.40;6.10;;;3.80;99.90;;;;;;4992500;28;20186;-76
2020/12/31 02:03:29;;;;;;;11.07;7.03;;;3.80;99.90;;;;;;4993333;28;20260;-74
2020/12/31 02:05:55;;;;;;;7.87;5.67;;;3.90;99.90;;;;;;4992244;28;20225;-75
2020/12/31 02:08:20;;;;;;;8.47;6.50;;;3.90;99.90;;;;;;4993430;28;20199;-76
2020/12/31 02:10:48;;;;;;;8.20;6.33;;;3.90;99.90;;;;;;4993466;28;20174;-77
2020/12/31 02:13:14;;;;;;;7.03;6.30;;;3.90;99.90;;;;;;4993354;28;20179;-77
2020/12/31 02:15:39;;;;;;;9.07;6.60;;;3.90;99.90;;;;;;4993541;28;20246;-75
2020/12/31 02:18:05;;;;;;;9.00;7.00;;;3.90;99.90;;;;;;4993499;28;20232;-77
2020/12/31 02:20:31;;;;;;;8.67;6.97;;;3.90;99.90;;;;;;4993678;28;20274;-75
2020/12/31 02:22:57;;;;;;;9.23;6.53;;;3.90;99.90;;;;;;4993356;28;20188;-74
2020/12/31 02:25:22;;;;;;;10.30;6.80;;;3.90;99.90;;;;;;4993499;28;20902;-78
2020/12/31 02:27:48;;;;;;;10.23;7.20;;;3.90;99.90;;;;;;4993304;28;20222;-76
2020/12/31 02:30:13;;;;;;;7.07;5.90;;;3.90;99.90;;;;;;4992141;28;20712;-74
2020/12/31 02:32:39;;;;;;;6.83;5.80;;;3.80;99.90;;;;;;4993091;28;20186;-77
2020/12/31 02:35:05;;;;;;;11.27;6.73;;;3.80;99.90;;;;;;4995068;28;20168;-78
2020/12/31 02:37:30;;;;;;;7.27;6.07;;;3.80;99.90;;;;;;4996909;28;20191;-74
2020/12/31 02:39:56;;;;;;;10.80;7.40;;;3.80;99.90;;;;;;4996974;28;20167;-76
2020/12/31 02:42:21;;;;;;;8.07;6.10;;;3.80;99.90;;;;;;4996408;28;20257;-77
2020/12/31 02:44:47;;;;;;;9.80;6.80;;;3.80;99.90;;;;;;4995613;28;20535;-78
2020/12/31 02:47:12;;;;;;;8.07;6.60;;;3.80;99.90;;;;;;4996603;28;20209;-77
2020/12/31 02:49:38;;;;;;;14.20;7.60;;;3.80;99.90;;;;;;4996737;28;20171;-77
2020/12/31 02:52:03;;;;;;;8.67;7.10;;;3.80;99.90;;;;;;4996271;28;20522;-77
2020/12/31 02:54:29;;;;;;;8.33;6.60;;;3.90;99.90;;;;;;4996569;28;20211;-75
2020/12/31 02:56:54;;;;;;;7.20;6.30;;;3.80;99.90;;;;;;4996547;28;20179;-75
2020/12/31 02:59:20;;;;;;;8.60;6.90;;;3.70;99.90;;;;;;4996668;28;20179;-75
2020/12/31 03:01:46;;;;;;;9.47;7.33;;;3.80;99.90;;;;;;4996460;28;20180;-75
2020/12/31 03:04:11;;;;;;;8.57;5.50;;;3.70;99.90;;;;;;4996395;28;20698;-76
2020/12/31 03:06:37;;;;;;;9.80;6.00;;;3.80;99.90;;;;;;4996562;28;20199;-76
2020/12/31 03:09:03;;;;;;;7.90;6.47;;;3.70;99.90;;;;;;4996700;28;20198;-77
2020/12/31 03:11:28;;;;;;;8.00;6.90;;;3.70;99.90;;;;;;4996709;28;20168;-75
2020/12/31 03:13:54;;;;;;;8.20;6.03;;;3.70;99.90;;;;;;4996440;28;20411;-75
2020/12/31 03:16:20;;;;;;;7.70;6.70;;;3.70;99.90;;;;;;4996481;28;20190;-76
2020/12/31 03:18:46;;;;;;;9.52;6.93;;;3.70;99.90;;;;;;4995164;28;20195;-76
2020/12/31 03:21:12;;;;;;;11.07;6.93;;;3.70;99.90;;;;;;4996314;28;20175;-76
2020/12/31 03:23:38;;;;;;;10.43;7.30;;;3.70;99.90;;;;;;4996045;28;20178;-76
2020/12/31 03:26:07;;;;;;;11.77;7.43;;;3.70;99.90;;;;;;4996074;28;20235;-77
2020/12/31 03:28:32;;;;;;;9.63;7.07;;;3.70;99.90;;;;;;4994648;28;20330;-76
2020/12/31 03:30:58;;;;;;;10.80;7.97;;;3.70;99.90;;;;;;4996045;28;20175;-77
2020/12/31 03:33:24;;;;;;;9.70;7.87;;;3.70;99.90;;;;;;4995954;28;20172;-74
2020/12/31 03:35:50;;;;;;;7.93;7.00;;;3.80;99.90;;;;;;4996052;28;20640;-75
2020/12/31 03:38:19;;;;;;;8.32;6.80;;;3.80;99.90;;;;;;4994678;28;20435;-77
2020/12/31 03:40:44;;;;;;;8.82;7.20;;;3.70;99.90;;;;;;4995814;28;20192;-75
2020/12/31 03:43:10;;;;;;;8.27;7.40;;;3.80;99.90;;;;;;4994264;28;20176;-76
2020/12/31 03:45:41;;;;;;;10.00;6.38;;;3.80;99.90;;;;;;4994170;28;20211;-77
2020/12/31 03:48:06;;;;;;;9.90;7.38;;;3.80;99.90;;;;;;4994370;28;20742;-74
2020/12/31 03:50:32;;;;;;;9.23;7.07;;;3.70;99.90;;;;;;4995496;28;20179;-77
2020/12/31 03:52:58;;;;;;;12.10;8.27;;;3.80;99.90;;;;;;4994063;28;20185;-76
2020/12/31 03:55:24;;;;;;;7.43;6.50;;;3.80;99.90;;;;;;4995554;28;20179;-76
2020/12/31 03:57:49;;;;;;;9.43;7.77;;;3.80;99.90;;;;;;4994221;28;20651;-75
2020/12/31 04:00:15;;;;;;;8.70;6.90;;;3.80;99.90;;;;;;4995583;28;20410;-75
2020/12/31 04:02:41;;;;;;;9.07;7.00;;;3.80;99.90;;;;;;4995035;28;20659;-75
2020/12/31 04:05:06;;;;;;;9.30;7.23;;;3.80;99.90;;;;;;4995559;28;20179;-75
2020/12/31 04:07:32;;;;;;;9.53;7.77;;;3.80;99.90;;;;;;4995379;28;20682;-76
2020/12/31 04:09:58;;;;;;;7.73;6.93;;;3.70;99.90;;;;;;4995433;28;20542;-77
2020/12/31 04:12:24;;;;;;;8.53;7.47;;;3.70;99.90;;;;;;4995010;28;20651;-77
2020/12/31 04:14:49;;;;;;;9.17;7.47;;;3.70;99.90;;;;;;4995220;28;20644;-78
2020/12/31 04:17:15;;;;;;;8.87;7.03;;;3.70;99.90;;;;;;4993934;28;20439;-75
2020/12/31 04:19:41;;;;;;;7.80;6.93;;;3.70;99.90;;;;;;4994989;28;20171;-76
2020/12/31 04:22:08;;;;;;;8.50;7.18;;;3.60;99.90;;;;;;4993578;28;20666;-75
2020/12/31 04:24:34;;;;;;;9.45;7.55;;;3.70;99.90;;;;;;4995291;28;20262;-76
2020/12/31 04:26:59;;;;;;;11.55;7.20;;;3.70;99.90;;;;;;4995046;28;20206;-76
2020/12/31 04:29:25;;;;;;;9.33;6.93;;;3.60;99.90;;;;;;4995137;28;20246;-78
2020/12/31 04:31:50;;;;;;;8.23;6.70;;;3.70;99.90;;;;;;4994936;28;20678;-77
2020/12/31 04:34:16;;;;;;;10.87;6.90;;;3.80;99.90;;;;;;4994955;28;20226;-74
2020/12/31 04:36:42;;;;;;;7.97;6.67;;;3.80;99.90;;;;;;4993528;28;20682;-76
2020/12/31 04:39:07;;;;;;;10.13;6.73;;;3.70;99.90;;;;;;4994652;28;20261;-76
2020/12/31 04:41:33;;;;;;;7.83;5.97;;;3.70;99.90;;;;;;4994602;28;20571;-75
2020/12/31 04:44:03;;;;;;;7.23;6.00;;;3.60;99.90;;;;;;4994363;28;20265;-75
2020/12/31 04:46:30;;;;;;;8.00;6.18;;;3.60;99.90;;;;;;4994506;28;20485;-76
2020/12/31 04:49:19;;;;;;;7.75;6.13;;;3.60;99.90;;;;;;4994468;28;20249;-76
2020/12/31 04:51:48;;;;;;;11.55;6.07;;;3.60;99.90;;;;;;4994532;28;20636;-76
2020/12/31 04:54:14;;;;;;;7.35;5.47;;;3.60;99.90;;;;;;4994258;28;20176;-77
2020/12/31 04:56:39;;;;;;;7.63;5.67;;;3.60;99.90;;;;;;4994386;28;20183;-76
2020/12/31 04:59:07;;;;;;;6.50;5.67;;;3.60;99.90;;;;;;4993413;28;20434;-76
2020/12/31 05:01:33;;;;;;;6.20;5.60;;;3.60;99.90;;;;;;4994263;28;20176;-74
2020/12/31 05:03:59;;;;;;;7.20;5.95;;;3.70;99.90;;;;;;4994046;28;20191;-76
2020/12/31 05:06:26;;;;;;;6.90;5.77;;;3.70;99.90;;;;;;4994216;28;20207;-74
2020/12/31 05:08:52;;;;;;;6.32;5.22;;;3.70;99.90;;;;;;4994608;28;20199;-76
2020/12/31 05:11:18;;;;;;;7.73;5.63;;;3.60;99.90;;;;;;4993217;28;20306;-75
2020/12/31 05:13:50;;;;;;;7.00;4.67;;;3.60;99.90;;;;;;4993941;28;20439;-76
2020/12/31 05:16:36;;;;;;;8.10;6.10;;;3.60;99.90;;;;;;4994283;28;20418;-74
2020/12/31 05:19:19;;;;;;;6.40;4.93;;;3.60;99.90;;;;;;4993953;28;20219;-77
2020/12/31 05:21:45;;;;;;;8.20;4.68;;;3.60;99.90;;;;;;4992974;28;20189;-75
2020/12/31 05:24:14;;;;;;;6.77;5.63;;;3.50;99.90;;;;;;4994015;28;20192;-75
2020/12/31 05:26:40;;;;;;;6.38;5.30;;;3.50;99.90;;;;;;4994052;28;20262;-75
2020/12/31 05:29:05;;;;;;;4.93;4.37;;;3.60;99.90;;;;;;4992691;28;20218;-76
2020/12/31 05:31:51;;;;;;;4.33;3.93;;;3.60;99.90;;;;;;4992522;28;20627;-75
2020/12/31 05:34:32;;;;;;;4.82;4.22;;;3.50;99.90;;;;;;4992819;28;20191;-75
2020/12/31 05:37:19;;;;;;;4.93;3.75;;;3.50;99.90;;;;;;4993845;28;20175;-76
2020/12/31 05:40:21;;;;;;;4.85;4.35;;;3.50;99.90;;;;;;4992792;28;20179;-74
2020/12/31 05:42:46;;;;;;;4.63;3.70;;;3.50;99.90;;;;;;4990419;28;20556;-75
2020/12/31 05:45:16;;;;;;;4.87;3.97;;;3.60;99.90;;;;;;4993791;28;20184;-75
2020/12/31 05:47:50;;;;;;;3.55;3.22;;;3.60;99.90;;;;;;4993624;28;20194;-76
2020/12/31 05:50:24;;;;;;;4.70;3.65;;;3.60;99.90;;;;;;4994020;28;20206;-76
2020/12/31 05:52:51;;;;;;;3.95;3.45;;;3.50;99.90;;;;;;4992352;28;20213;-77
2020/12/31 05:55:19;;;;;;;4.25;3.20;;;3.50;99.90;;;;;;4993815;28;20183;-74
2020/12/31 05:57:55;;;;;;;3.05;2.72;;;3.50;99.90;;;;;;4993434;28;20226;-77
2020/12/31 06:00:23;;;;;;;6.47;3.28;;;3.50;99.90;;;;;;4992487;28;20262;-78
2020/12/31 06:03:00;;;;;;;3.67;3.13;;;3.50;99.90;;;;;;4993390;28;20168;-76
2020/12/31 06:05:28;;;;;;;4.22;3.35;;;3.60;99.90;;;;;;4993638;28;20189;-77
2020/12/31 06:07:57;;;;;;;3.65;2.90;;;3.50;99.90;;;;;;4993371;28;20195;-77
2020/12/31 06:10:25;;;;;;;3.33;2.90;;;3.50;99.90;;;;;;4995958;28;20170;-75
2020/12/31 06:12:56;;;;;;;2.80;2.45;;;3.50;99.90;;;;;;4996081;28;20178;-75
2020/12/31 06:15:25;;;;;;;3.28;2.88;;;3.50;99.90;;;;;;4997543;28;20240;-76
2020/12/31 06:17:51;;;;;;;2.97;2.67;;;3.50;99.90;;;;;;4996003;28;20192;-76
2020/12/31 06:20:19;;;;;;;3.55;2.95;;;3.50;99.90;;;;;;4996231;28;20576;-78
2020/12/31 06:22:59;;;;;;;3.05;2.75;;;3.50;99.90;;;;;;4996973;28;20178;-76
2020/12/31 06:25:38;;;;;;;3.65;3.20;;;3.40;99.90;;;;;;4995995;28;20183;-75
2020/12/31 06:28:10;;;;;;;4.95;3.60;;;3.40;99.90;;;;;;4997031;28;20209;-77
2020/12/31 06:30:37;;;;;;;3.38;3.08;;;3.40;99.90;;;;;;4997426;28;20193;-75
2020/12/31 06:33:12;;;;;;;3.20;2.47;;;3.40;99.90;;;;;;4997083;28;20253;-78
2020/12/31 06:35:41;;;;;;;3.45;3.10;;;3.40;99.90;;;;;;4996092;28;20193;-73
2020/12/31 06:38:07;;;;;;;2.80;2.60;;;3.40;99.90;;;;;;4996930;28;20198;-78
2020/12/31 06:40:34;;;;;;;3.53;3.03;;;3.40;99.90;;;;;;4997167;28;20189;-78
2020/12/31 06:43:11;;;;;;;2.47;2.28;;;3.40;99.90;;;;;;4995478;28;20233;-76
2020/12/31 06:45:48;;;;;;;3.50;3.17;;;3.40;99.90;;;;;;4996913;28;20227;-76
2020/12/31 06:48:26;;;;;;;3.13;2.80;;;3.40;99.90;;;;;;4996714;28;20189;-78
2020/12/31 06:51:10;;;;;;;2.90;2.60;;;3.30;99.90;;;;;;4996844;28;20179;-76
2020/12/31 06:53:40;;;;;;;4.15;3.22;;;3.30;99.90;;;;;;4995466;28;20174;-80
2020/12/31 06:56:10;;;;;;;3.63;2.72;;;3.30;99.90;;;;;;4996766;28;20186;-77
2020/12/31 06:58:37;;;;;;;3.22;2.80;;;3.30;99.90;;;;;;4995391;28;20195;-77
2020/12/31 07:01:25;;;;;;;3.53;2.75;;;3.30;99.90;;;;;;4995407;28;20328;-78
2020/12/31 07:03:52;;;;;;;4.65;3.70;;;3.30;99.90;;;;;;4995098;28;20177;-77
2020/12/31 07:06:20;;;;;;;6.93;5.25;;;3.20;99.90;;;;;;4996655;28;20207;-80
2020/12/31 07:08:50;;;;;;;6.65;5.88;;;3.30;99.90;;;;;;4996473;28;20196;-79
2020/12/31 07:11:37;;;;;;;9.23;7.30;;;3.30;99.90;;;;;;4996509;28;20225;-79
2020/12/31 07:14:10;;;;;;;8.88;7.60;;;3.20;99.90;;;;;;4994832;28;20590;-79
2020/12/31 07:16:46;;;;;;;9.52;8.18;;;3.20;99.90;;;;;;4996396;28;20183;-78
2020/12/31 07:19:12;;;;;;;10.40;8.10;;;3.30;99.90;;;;;;4996430;28;20179;-75
2020/12/31 07:21:37;;;;;;;9.88;6.85;;;3.20;99.90;;;;;;4995472;28;20500;-77
2020/12/31 07:24:26;;;;;;;10.53;8.73;;;3.20;99.90;;;;;;4994774;28;20187;-76
2020/12/31 07:26:57;;;;;;;14.93;10.23;;;3.20;99.90;;;;;;4996267;28;20214;-79
2020/12/31 07:29:24;;;;;;;15.27;11.27;;;3.20;99.90;;;;;;4994708;28;20193;-78
2020/12/31 07:31:51;;;;;;;15.63;10.80;;;3.20;99.90;;;;;;4994826;28;20546;-77
2020/12/31 07:34:25;;;;;;;16.88;11.20;;;3.20;99.90;;;;;;4996155;28;20230;-77
2020/12/31 07:36:57;;;;;;;11.48;9.20;;;3.10;99.90;;;;;;4995925;28;20269;-78
2020/12/31 07:39:23;;;;;;;12.93;9.55;;;3.10;99.90;;;;;;4995969;28;20207;-76
2020/12/31 07:41:49;;;;;;;13.18;9.55;;;3.10;99.90;;;;;;4995964;28;20580;-79
2020/12/31 07:44:15;;;;;;;12.53;9.40;;;3.10;99.90;;;;;;4994499;28;20222;-78
2020/12/31 07:46:40;;;;;;;12.30;9.73;;;3.10;99.90;;;;;;4995885;28;20216;-78
2020/12/31 07:49:12;;;;;;;16.30;10.40;;;3.00;99.90;;;;;;4995839;28;20218;-79
2020/12/31 07:51:45;;;;;;;13.80;11.45;;;3.00;99.90;;;;;;4994422;28;20546;-78
2020/12/31 07:54:11;;;;;;;15.75;12.38;;;3.00;99.90;;;;;;4994248;28;20200;-79
2020/12/31 07:56:37;;;;;;;15.93;12.03;;;3.10;99.90;;;;;;4995533;28;20175;-78
2020/12/31 07:59:04;;;;;;;16.27;12.82;;;3.10;99.90;;;;;;4995731;28;20260;-77
2020/12/31 08:01:29;;;;;;;15.25;13.38;;;3.10;99.90;;;;;;4994125;28;20182;-78
2020/12/31 08:04:09;;;;;;;15.73;12.33;;;3.10;99.90;;;;;;4995234;28;20178;-78
2020/12/31 08:06:34;;;;;;;14.68;11.77;;;3.10;99.90;;;;;;4995244;28;20201;-77
2020/12/31 08:09:00;;;;;;;18.43;13.60;;;3.10;99.90;;;;;;4995223;28;20667;-78
2020/12/31 08:11:26;;;;;;;17.17;11.50;;;3.10;99.90;;;;;;4995260;28;20177;-79
2020/12/31 08:14:04;;;;;;;15.70;11.80;;;3.10;99.90;;;;;;4995125;28;20175;-80
2020/12/31 08:16:30;;;;;;;16.45;12.95;;;3.10;99.90;;;;;;4995488;28;20178;-79
2020/12/31 08:18:57;;;;;;;16.10;13.10;;;3.10;99.90;;;;;;4995096;28;20557;-81
2020/12/31 08:21:24;;;;;;;13.90;11.45;;;3.10;99.90;;;;;;4995117;28;20175;-77
2020/12/31 08:24:02;;;;;;;18.17;13.57;;;3.20;99.90;;;;;;4994766;28;20543;-77
2020/12/31 08:26:28;;;;;;;16.05;13.00;;;3.20;99.90;;;;;;4995017;28;20660;-80
2020/12/31 08:28:55;;;;;;;15.45;12.38;;;3.20;99.90;;;;;;4994717;28;20216;-76
2020/12/31 08:31:24;;;;;;;14.75;12.10;;;3.30;99.90;;;;;;4995061;28;20233;-78
2020/12/31 08:33:56;;;;;;;16.05;12.55;;;3.20;99.90;;;;;;4994345;28;20179;-76
2020/12/31 08:36:25;;;;;;;15.50;12.40;;;3.20;99.90;;;;;;4995037;28;20198;-79
2020/12/31 08:38:54;;;;;;;15.20;11.93;;;3.20;99.90;;;;;;4994584;28;20561;-78
2020/12/31 08:41:20;;;;;;;14.77;13.07;;;3.20;99.90;;;;;;4994975;28;20190;-77
2020/12/31 08:43:46;;;;;;;15.75;11.82;;;3.30;99.90;;;;;;4993269;28;20178;-77
2020/12/31 08:46:19;;;;;;;19.30;12.00;;;3.30;99.90;;;;;;4994691;28;20237;-77
2020/12/31 08:48:55;;;;;;;13.85;11.40;;;3.30;99.90;;;;;;4994551;28;20517;-76
2020/12/31 08:51:21;;;;;;;15.10;11.48;;;3.30;99.90;;;;;;4994537;28;20206;-79
2020/12/31 08:53:49;;;;;;;14.23;10.80;;;3.30;99.90;;;;;;4992963;28;20178;-80
2020/12/31 08:56:16;;;;;;;13.98;10.75;;;3.40;99.90;;;;;;4994478;28;20226;-79
2020/12/31 08:58:42;;;;;;;13.85;11.70;;;3.50;99.90;;;;;;4994485;28;20672;-80
2020/12/31 09:01:20;;;;;;;12.67;10.00;;;3.50;99.90;;;;;;4993041;28;20332;-82
2020/12/31 09:03:45;;;;;;;15.80;11.57;;;3.40;99.90;;;;;;4994067;28;20183;-76
2020/12/31 09:06:21;;;;;;;11.73;8.97;;;3.50;99.90;;;;;;4994348;28;20211;-77
2020/12/31 09:08:48;;;;;;;11.10;9.20;;;3.40;99.90;;;;;;4996728;28;20198;-76
2020/12/31 09:11:14;;;;;;;11.45;9.45;;;3.30;99.90;;;;;;5003691;28;20651;-75
2020/12/31 09:13:40;;;;;;;11.70;7.93;;;3.40;99.90;;;;;;4994507;28;20183;-76
2020/12/31 09:16:06;;;;;;;15.40;10.30;;;3.30;99.90;;;;;;4994508;28;20543;-76
2020/12/31 09:18:32;;;;;;;12.40;8.98;;;3.40;99.90;;;;;;4994205;28;20694;-77
2020/12/31 09:20:58;;;;;;;9.60;8.60;;;3.40;99.90;;;;;;4994177;28;20270;-77
2020/12/31 09:23:23;;;;;;;13.18;7.93;;;3.40;99.90;;;;;;4993625;28;20193;-76
2020/12/31 09:25:50;;;;;;;10.17;7.30;;;3.60;99.90;;;;;;4994393;28;20209;-77
2020/12/31 09:28:17;;;;;;;8.55;7.30;;;3.50;99.90;;;;;;4993992;28;20214;-77
2020/12/31 09:30:43;;;;;;;8.45;7.20;;;3.50;99.90;;;;;;4992768;28;20181;-75
2020/12/31 09:33:14;;;;;;;9.85;7.38;;;3.50;99.90;;;;;;4993774;28;20590;-76
2020/12/31 09:35:40;;;;;;;9.63;6.35;;;3.60;99.90;;;;;;4993875;28;20226;-76
2020/12/31 09:38:06;;;;;;;9.13;6.23;;;3.50;99.90;;;;;;4993918;28;20191;-75
2020/12/31 09:40:31;;;;;;;8.17;6.20;;;3.50;99.90;;;;;;4994135;28;20230;-77
2020/12/31 09:42:57;;;;;;;7.30;5.83;;;3.50;99.90;;;;;;4993507;28;20172;-76
2020/12/31 09:45:22;;;;;;;7.17;5.87;;;3.50;99.90;;;;;;4998562;28;20698;-76
2020/12/31 09:47:48;;;;;;;6.57;5.83;;;3.40;99.90;;;;;;5000159;28;20206;-76
2020/12/31 09:50:14;;;;;;;8.03;6.07;;;3.30;99.90;;;;;;5000441;28;20171;-76
2020/12/31 09:52:40;;;;;;;5.77;5.00;;;3.40;99.90;;;;;;4999978;28;20182;-76
2020/12/31 09:55:07;;;;;;;8.45;4.70;;;3.20;99.90;;;;;;5000034;28;20175;-76
2020/12/31 09:57:36;;;;;;;5.55;4.93;;;3.20;99.90;;;;;;4999980;28;20548;-74
2020/12/31 10:00:03;;;;;;;10.30;5.15;;;3.20;99.90;;;;;;5000214;28;20182;-76
2020/12/31 10:02:29;;;;;;;7.68;5.15;;;3.20;99.90;;;;;;4999839;28;20175;-76
2020/12/31 10:04:54;;;;;;;4.37;3.97;;;3.10;99.90;;;;;;4998928;28;20696;-75
2020/12/31 10:07:20;;;;;;;5.57;4.33;;;3.00;99.90;;;;;;4999865;28;20210;-76
2020/12/31 10:09:46;;;;;;;6.40;4.17;;;3.00;99.90;;;;;;4998763;28;20174;-75
2020/12/31 10:12:13;;;;;;;3.87;3.57;;;3.00;99.90;;;;;;4999833;28;20286;-75
2020/12/31 10:14:39;;;;;;;4.78;3.70;;;2.90;99.90;;;;;;5000214;28;20176;-75
2020/12/31 10:17:05;;;;;;;4.60;4.10;;;2.90;99.90;;;;;;4999008;28;20280;-75
2020/12/31 10:19:30;;;;;;;8.73;4.87;;;2.90;99.90;;;;;;5000148;28;20643;-75
2020/12/31 10:21:56;;;;;;;4.20;3.80;;;2.90;99.90;;;;;;4999870;28;20451;-75
2020/12/31 10:24:21;;;;;;;5.70;4.03;;;2.90;99.90;;;;;;4999856;28;20199;-75
2020/12/31 10:26:47;;;;;;;5.90;4.20;;;2.80;99.90;;;;;;4999805;28;20227;-76
2020/12/31 10:29:14;;;;;;;4.37;3.97;;;2.70;99.90;;;;;;4999808;28;20210;-76
2020/12/31 10:31:42;;;;;;;6.38;5.10;;;2.70;99.90;;;;;;4999695;28;20168;-75
2020/12/31 10:34:08;;;;;;;5.18;4.68;;;2.60;99.90;;;;;;4999655;28;20185;-76
2020/12/31 10:36:34;;;;;;;8.32;5.57;;;2.60;99.90;;;;;;4999796;28;20182;-75
2020/12/31 10:39:01;;;;;;;6.10;4.40;;;2.70;99.90;;;;;;5000083;28;20206;-75
2020/12/31 10:41:28;;;;;;;6.63;5.43;;;2.70;99.90;;;;;;5000996;28;20174;-76
2020/12/31 10:43:54;;;;;;;8.90;5.93;;;2.60;99.90;;;;;;5017728;28;20168;-75
2020/12/31 10:46:23;;;;;;;7.40;5.07;;;2.60;99.90;;;;;;5018834;28;20308;-75
2020/12/31 10:48:48;;;;;;;6.38;5.45;;;2.60;99.90;;;;;;5019647;28;20485;-76
2020/12/31 10:51:14;;;;;;;6.60;5.90;;;2.60;99.90;;;;;;5019493;28;20181;-76
2020/12/31 10:53:40;;;;;;;4.70;4.20;;;2.70;99.90;;;;;;5019055;28;20182;-76
2020/12/31 10:56:05;;;;;;;6.40;5.20;;;2.70;99.90;;;;;;5017474;28;20686;-76
2020/12/31 10:58:31;;;;;;;4.70;3.90;;;2.80;99.90;;;;;;5016136;28;20196;-75
2020/12/31 11:00:57;;;;;;;5.15;4.32;;;2.80;99.90;;;;;;5016133;28;20568;-76
2020/12/31 11:03:22;;;;;;;7.27;4.57;;;3.00;99.90;;;;;;5014531;28;20287;-76
2020/12/31 11:05:48;;;;;;;5.00;4.20;;;3.10;99.90;;;;;;5015713;28;20213;-75
2020/12/31 11:08:13;;;;;;;5.27;4.57;;;3.20;99.90;;;;;;5015751;28;20219;-77
2020/12/31 11:10:39;;;;;;;3.97;3.47;;;3.40;99.90;;;;;;5015831;28;20178;-77
2020/12/31 11:13:05;;;;;;;3.57;3.27;;;3.50;99.90;;;;;;5015454;28;20535;-75
2020/12/31 11:15:30;;;;;;;4.03;3.23;;;3.50;99.90;;;;;;5015837;28;20185;-76
2020/12/31 11:17:56;;;;;;;3.50;3.03;;;3.50;99.90;;;;;;5015645;28;20197;-76
2020/12/31 11:20:22;;;;;;;3.47;2.67;;;3.60;99.90;;;;;;5015664;28;20174;-75
2020/12/31 11:22:49;;;;;;;3.57;3.27;;;3.60;99.90;;;;;;5015393;28;20417;-75
2020/12/31 11:25:15;;;;;;;3.20;2.90;;;3.60;99.90;;;;;;5015849;28;20552;-76
2020/12/31 11:27:40;;;;;;;4.50;3.10;;;3.60;99.90;;;;;;5015647;28;20275;-76
2020/12/31 11:30:07;;;;;;;3.50;2.90;;;3.70;99.90;;;;;;5015721;28;20274;-75
2020/12/31 11:32:39;;;;;;;3.95;2.85;;;3.60;99.90;;;;;;5015195;28;20179;-76
2020/12/31 11:35:05;;;;;;;3.70;3.22;;;3.70;99.90;;;;;;5015524;28;20181;-75
2020/12/31 11:37:33;;;;;;;4.22;3.67;;;3.70;99.90;;;;;;5015376;28;20210;-75
2020/12/31 11:39:59;;;;;;;4.05;3.65;;;3.80;99.90;;;;;;5015594;28;20232;-77
2020/12/31 11:42:24;;;;;;;3.70;3.10;;;3.80;99.90;;;;;;5014960;28;20178;-76
2020/12/31 11:44:50;;;;;;;3.47;2.93;;;3.80;99.90;;;;;;5015336;28;20183;-76
2020/12/31 11:47:15;;;;;;;4.00;3.60;;;3.70;99.90;;;;;;5015017;28;20647;-77
2020/12/31 11:49:41;;;;;;;4.97;3.80;;;3.60;99.90;;;;;;5015148;28;20179;-80
2020/12/31 11:52:07;;;;;;;4.00;3.40;;;3.70;99.90;;;;;;5005586;28;20183;-82
2020/12/31 11:54:32;;;;;;;7.10;4.90;;;3.60;99.90;;;;;;4994550;28;20214;-80
2020/12/31 11:56:58;;;;;;;5.23;4.17;;;3.70;99.90;;;;;;4995832;28;20229;-76
2020/12/31 11:59:23;;;;;;;3.90;3.33;;;3.70;99.90;;;;;;5007437;28;20582;-77
2020/12/31 12:01:50;;;;;;;4.13;3.57;;;3.70;99.90;;;;;;5014247;28;20187;-76
2020/12/31 12:04:17;;;;;;;3.83;3.53;;;3.80;99.90;;;;;;5012682;28;20178;-77
2020/12/31 12:06:54;;;;;;;3.22;3.00;;;3.90;99.90;;;;;;5014305;28;20200;-76
2020/12/31 12:09:23;;;;;;;5.03;4.32;;;3.80;99.90;;;;;;5013663;28;20155;-76
2020/12/31 12:11:49;;;;;;;4.43;3.80;;;4.00;99.90;;;;;;5013795;28;20174;-75
2020/12/31 12:14:15;;;;;;;6.20;4.70;;;4.10;99.90;;;;;;5014195;28;20179;-76
2020/12/31 12:16:42;;;;;;;7.00;4.60;;;4.10;99.90;;;;;;5014612;28;20445;-75
2020/12/31 12:19:10;;;;;;;5.00;4.50;;;4.20;99.90;;;;;;5014717;28;20175;-75
2020/12/31 12:21:36;;;;;;;5.05;4.35;;;4.20;99.90;;;;;;5014868;28;20277;-77
2020/12/31 12:24:06;;;;;;;5.30;4.78;;;4.20;99.90;;;;;;5014327;28;20202;-76
2020/12/31 12:26:35;;;;;;;5.50;4.70;;;4.30;99.90;;;;;;5014412;28;20205;-77
2020/12/31 12:29:02;;;;;;;5.50;4.90;;;4.30;99.90;;;;;;5014263;28;20218;-77
2020/12/31 12:31:37;;;;;;;5.38;4.78;;;4.50;99.90;;;;;;5014530;28;20172;-77
2020/12/31 12:34:04;;;;;;;6.10;5.50;;;4.50;99.90;;;;;;5014210;28;20691;-76
2020/12/31 12:36:30;;;;;;;6.00;5.40;;;4.50;99.90;;;;;;5014330;28;20270;-76
2020/12/31 12:38:56;;;;;;;5.43;4.90;;;4.30;99.90;;;;;;5014219;28;20665;-76
2020/12/31 12:41:23;;;;;;;9.43;5.30;;;4.40;99.90;;;;;;5014289;28;20418;-75
2020/12/31 12:43:49;;;;;;;7.60;5.32;;;4.40;99.90;;;;;;4996302;28;20265;-76
2020/12/31 12:46:16;;;;;;;6.53;5.50;;;4.40;99.90;;;;;;5014346;28;20642;-75
2020/12/31 12:48:42;;;;;;;5.60;5.10;;;4.40;99.90;;;;;;5014133;28;20183;-76
2020/12/31 12:51:08;;;;;;;8.33;4.70;;;4.40;99.90;;;;;;5014177;28;20185;-78
2020/12/31 12:53:33;;;;;;;4.43;4.03;;;4.40;99.90;;;;;;5013915;28;20406;-76
2020/12/31 12:55:59;;;;;;;6.23;4.93;;;4.50;99.90;;;;;;5014111;28;20256;-77